Time;durP1;ratioP1;P1;durP2;ratioP2;P2;SDS_P1;SDS_P2;PMS_P1;PMS_P2;Temp;Humidity;BMP_temperature;BMP_pressure;BME280_temperature;BME280_humidity;BME280_pressure;Samples;Min_cycle;Max_cycle;Signal;HPM_P1;HPM_P2
2023/12/18 00:02:19;;;;;;;21.40;9.45;;;7.50;99.90;;;;;;4997007;28;20128;-92
2023/12/18 00:04:45;;;;;;;24.88;9.50;;;7.50;99.90;;;;;;4997965;28;20033;-91
2023/12/18 00:07:11;;;;;;;15.75;6.88;;;7.50;99.90;;;;;;5013793;28;20048;-91
2023/12/18 00:09:38;;;;;;;18.33;7.20;;;7.60;99.90;;;;;;4997685;28;20045;-91
2023/12/18 00:12:04;;;;;;;16.67;6.40;;;7.60;99.90;;;;;;5013923;28;20052;-91
2023/12/18 00:14:29;;;;;;;11.35;4.82;;;7.60;99.90;;;;;;5013501;28;20056;-91
2023/12/18 00:16:55;;;;;;;20.52;6.32;;;7.50;99.90;;;;;;5014475;28;20045;-92
2023/12/18 00:19:21;;;;;;;15.57;6.05;;;7.60;99.90;;;;;;5014237;28;20034;-92
2023/12/18 00:21:46;;;;;;;10.73;4.53;;;7.60;99.90;;;;;;4997852;28;20614;-92
2023/12/18 00:24:12;;;;;;;14.43;5.90;;;7.60;99.90;;;;;;4997578;28;20053;-92
2023/12/18 00:26:37;;;;;;;17.92;7.80;;;7.60;99.90;;;;;;5013740;28;20120;-91
2023/12/18 00:29:03;;;;;;;16.60;7.80;;;7.60;99.90;;;;;;5013302;28;20041;-91
2023/12/18 00:31:28;;;;;;;19.45;6.38;;;7.60;99.90;;;;;;5013086;28;20052;-91
2023/12/18 00:33:54;;;;;;;16.38;6.50;;;7.60;99.90;;;;;;4996852;28;20079;-91
2023/12/18 00:36:20;;;;;;;11.73;4.63;;;7.60;99.90;;;;;;5014063;28;20038;-91
2023/12/18 00:38:46;;;;;;;14.70;6.28;;;7.60;99.90;;;;;;5013389;28;20116;-92
2023/12/18 00:41:11;;;;;;;18.67;7.90;;;7.60;99.90;;;;;;4997020;28;20480;-91
2023/12/18 00:43:37;;;;;;;17.85;7.45;;;7.60;99.90;;;;;;4959460;28;1089829;-92
2023/12/18 00:46:05;;;;;;;15.68;6.85;;;7.60;99.90;;;;;;5014087;28;20057;-91
2023/12/18 00:48:31;;;;;;;20.80;9.80;;;7.60;99.90;;;;;;4997547;28;20041;-92
2023/12/18 00:50:56;;;;;;;13.65;6.72;;;7.60;99.90;;;;;;4997055;28;20045;-91
2023/12/18 00:53:22;;;;;;;15.80;7.32;;;7.60;99.90;;;;;;4996901;28;20140;-91
2023/12/18 00:55:48;;;;;;;17.58;8.02;;;7.60;99.90;;;;;;5013754;28;20500;-91
2023/12/18 00:58:13;;;;;;;22.40;7.22;;;7.60;99.90;;;;;;4997432;28;20042;-91
2023/12/18 01:00:39;;;;;;;26.38;9.77;;;7.60;99.90;;;;;;5013847;28;20047;-91
2023/12/18 01:03:05;;;;;;;24.45;9.57;;;7.50;99.90;;;;;;5013475;28;20085;-91
2023/12/18 01:05:30;;;;;;;16.48;7.75;;;7.60;99.90;;;;;;5014513;28;20052;-91
2023/12/18 01:07:56;;;;;;;17.27;6.40;;;7.60;99.90;;;;;;5013059;28;20041;-91
2023/12/18 01:10:22;;;;;;;12.15;5.97;;;7.60;99.90;;;;;;5013925;28;20049;-91
2023/12/18 01:12:47;;;;;;;17.42;7.13;;;7.60;99.90;;;;;;5012895;28;20103;-91
2023/12/18 01:15:13;;;;;;;19.27;9.25;;;7.60;99.90;;;;;;5013644;28;20057;-91
2023/12/18 01:17:39;;;;;;;15.30;7.43;;;7.50;99.90;;;;;;4997927;28;20091;-91
2023/12/18 01:20:06;;;;;;;20.35;5.95;;;7.50;99.90;;;;;;5013963;28;20033;-92
2023/12/18 01:22:32;;;;;;;13.75;5.97;;;7.60;99.90;;;;;;4997385;28;20037;-91
2023/12/18 01:24:58;;;;;;;17.02;6.90;;;7.60;99.90;;;;;;5013996;28;20087;-91
2023/12/18 01:27:23;;;;;;;9.13;4.30;;;7.60;99.90;;;;;;5013203;28;20037;-90
2023/12/18 01:29:49;;;;;;;13.55;6.38;;;7.60;99.90;;;;;;4996914;28;20067;-92
2023/12/18 01:32:14;;;;;;;15.73;7.55;;;7.60;99.90;;;;;;5012782;28;20037;-92
2023/12/18 01:34:40;;;;;;;14.45;6.57;;;7.60;99.90;;;;;;5013857;28;20053;-91
2023/12/18 01:37:06;;;;;;;11.95;5.50;;;7.60;99.90;;;;;;4997123;28;20037;-92
2023/12/18 01:39:32;;;;;;;10.60;5.93;;;7.70;99.90;;;;;;4997230;28;20413;-92
2023/12/18 01:42:00;;;;;;;11.63;5.53;;;7.60;99.90;;;;;;5013520;28;20544;-91
2023/12/18 01:44:26;;;;;;;10.82;3.95;;;7.60;99.90;;;;;;5013242;28;20041;-91
2023/12/18 01:46:52;;;;;;;17.98;8.32;;;7.60;99.90;;;;;;5016397;28;20026;-91
2023/12/18 01:49:18;;;;;;;18.55;7.90;;;7.60;99.90;;;;;;5016155;28;20065;-91
2023/12/18 01:51:45;;;;;;;22.88;9.88;;;7.70;99.90;;;;;;5028732;28;20041;-91
2023/12/18 01:54:11;;;;;;;14.23;6.35;;;7.70;99.90;;;;;;5028090;28;20051;-92
2023/12/18 01:56:39;;;;;;;21.02;8.32;;;7.70;99.90;;;;;;5028723;28;20148;-92
2023/12/18 01:59:06;;;;;;;23.73;10.93;;;7.70;99.90;;;;;;5011545;28;20164;-91
2023/12/18 02:01:32;;;;;;;21.67;9.90;;;7.70;99.90;;;;;;4997897;28;20037;-91
2023/12/18 02:03:58;;;;;;;23.33;9.65;;;7.70;99.90;;;;;;5013605;28;20427;-92
2023/12/18 02:06:24;;;;;;;21.58;8.70;;;7.70;99.90;;;;;;4996485;28;20135;-91
2023/12/18 02:08:50;;;;;;;14.93;6.85;;;7.70;99.90;;;;;;5012865;28;20045;-91
2023/12/18 02:11:15;;;;;;;12.60;6.05;;;7.70;99.90;;;;;;5012404;28;20033;-91
2023/12/18 02:13:41;;;;;;;15.18;6.95;;;7.70;99.90;;;;;;5012613;28;20041;-91
2023/12/18 02:16:07;;;;;;;19.23;7.85;;;7.70;99.90;;;;;;4996776;28;20095;-91
2023/12/18 02:18:33;;;;;;;15.82;7.05;;;7.70;99.90;;;;;;4996878;28;20039;-91
2023/12/18 02:20:59;;;;;;;22.95;9.63;;;7.80;99.90;;;;;;5013096;28;20041;-91
2023/12/18 02:23:24;;;;;;;13.00;5.45;;;7.80;99.90;;;;;;4996711;28;20037;-91
2023/12/18 02:25:50;;;;;;;16.80;6.78;;;7.80;99.90;;;;;;4996777;28;20045;-91
2023/12/18 02:28:17;;;;;;;17.90;8.30;;;7.70;99.90;;;;;;5012558;28;20073;-92
2023/12/18 02:30:43;;;;;;;23.63;10.05;;;7.80;99.90;;;;;;4996206;28;20084;-92
2023/12/18 02:33:08;;;;;;;23.17;11.38;;;7.80;99.90;;;;;;4996033;28;20037;-91
2023/12/18 02:35:34;;;;;;;23.35;10.48;;;7.80;99.90;;;;;;4995804;28;20033;-91
2023/12/18 02:38:00;;;;;;;21.17;8.88;;;7.80;99.90;;;;;;4996506;28;20041;-92
2023/12/18 02:40:26;;;;;;;26.20;8.63;;;7.80;99.90;;;;;;4996314;28;20429;-91
2023/12/18 02:42:51;;;;;;;17.50;8.35;;;7.80;99.90;;;;;;5012056;28;20451;-91
2023/12/18 02:45:17;;;;;;;22.90;7.45;;;7.80;99.90;;;;;;5012768;28;20033;-92
2023/12/18 02:47:43;;;;;;;19.17;7.07;;;7.80;99.90;;;;;;5012383;28;20042;-91
2023/12/18 02:50:09;;;;;;;18.38;8.43;;;7.80;99.90;;;;;;4996074;28;20487;-91
2023/12/18 02:52:34;;;;;;;24.52;9.32;;;7.80;99.90;;;;;;5011946;28;20045;-92
2023/12/18 02:55:00;;;;;;;16.27;7.07;;;7.80;99.90;;;;;;5012192;28;20045;-92
2023/12/18 02:57:26;;;;;;;21.20;8.43;;;7.80;99.90;;;;;;4996060;28;20046;-92
2023/12/18 02:59:52;;;;;;;16.10;7.45;;;7.80;99.90;;;;;;5012795;28;20439;-92
2023/12/18 03:02:17;;;;;;;20.88;8.63;;;7.80;99.90;;;;;;5011937;28;20522;-92
2023/12/18 03:04:43;;;;;;;16.63;7.38;;;7.80;99.90;;;;;;4995457;28;20091;-92
2023/12/18 03:07:09;;;;;;;12.20;6.40;;;7.80;99.90;;;;;;5012214;28;20057;-92
2023/12/18 03:09:35;;;;;;;18.20;7.90;;;7.80;99.90;;;;;;5010921;28;20044;-91
2023/12/18 03:12:01;;;;;;;14.52;6.70;;;7.80;99.90;;;;;;4995434;28;20128;-92
2023/12/18 03:14:27;;;;;;;23.02;8.00;;;7.80;99.90;;;;;;5012205;28;20116;-92
2023/12/18 03:16:53;;;;;;;24.42;9.20;;;7.80;99.90;;;;;;5011974;28;20064;-92
2023/12/18 03:19:19;;;;;;;16.73;7.63;;;7.80;99.90;;;;;;4995894;28;20041;-92
2023/12/18 03:21:48;;;;;;;15.15;7.32;;;7.80;99.90;;;;;;5012600;28;20041;-92
2023/12/18 03:24:14;;;;;;;15.70;7.25;;;7.80;99.90;;;;;;5012049;28;20104;-91
2023/12/18 03:26:39;;;;;;;18.23;6.97;;;7.80;99.90;;;;;;5012352;28;20606;-92
2023/12/18 03:29:05;;;;;;;11.75;5.57;;;7.80;99.90;;;;;;4995801;28;20048;-92
2023/12/18 03:31:31;;;;;;;9.07;3.95;;;7.90;99.90;;;;;;5011996;28;20439;-92
2023/12/18 03:33:57;;;;;;;14.02;6.70;;;7.90;99.90;;;;;;4995252;28;20463;-91
2023/12/18 03:36:22;;;;;;;14.98;5.75;;;7.90;99.90;;;;;;5012184;28;20040;-92
2023/12/18 03:38:48;;;;;;;12.63;5.60;;;7.90;99.90;;;;;;5011793;28;20107;-92
2023/12/18 03:41:14;;;;;;;23.58;7.20;;;7.90;99.90;;;;;;4995878;28;20037;-92
2023/12/18 03:43:39;;;;;;;27.95;8.77;;;7.90;99.90;;;;;;4995743;28;20045;-92
2023/12/18 03:46:06;;;;;;;17.92;8.68;;;7.90;99.90;;;;;;4995732;28;20038;-92
2023/12/18 03:48:31;;;;;;;21.42;9.23;;;7.90;99.90;;;;;;5012504;28;20041;-92
2023/12/18 03:50:57;;;;;;;21.27;8.93;;;7.90;99.90;;;;;;5011835;28;20049;-92
2023/12/18 03:53:22;;;;;;;25.75;10.48;;;7.90;99.90;;;;;;5011491;28;20120;-93
2023/12/18 03:55:48;;;;;;;17.88;8.10;;;7.90;99.90;;;;;;4995710;28;20041;-93
2023/12/18 03:58:14;;;;;;;18.85;6.60;;;7.90;99.90;;;;;;5012110;28;20597;-92
2023/12/18 04:00:39;;;;;;;12.75;6.65;;;7.90;99.90;;;;;;5012352;28;20512;-92
2023/12/18 04:03:05;;;;;;;12.55;5.25;;;7.90;99.90;;;;;;4994994;28;20500;-92
2023/12/18 04:05:31;;;;;;;11.38;4.97;;;7.90;99.90;;;;;;4995649;28;20037;-93
2023/12/18 04:07:56;;;;;;;10.43;4.72;;;7.90;99.90;;;;;;5011203;28;20052;-92
2023/12/18 04:10:22;;;;;;;15.88;6.53;;;7.90;99.90;;;;;;5011628;28;20041;-92
2023/12/18 04:12:48;;;;;;;22.10;7.30;;;7.90;99.90;;;;;;5010365;28;20041;-92
2023/12/18 04:15:13;;;;;;;14.50;7.53;;;7.90;99.90;;;;;;4995148;28;20144;-92
2023/12/18 04:17:39;;;;;;;15.57;7.30;;;7.90;99.90;;;;;;4995662;28;20045;-92
2023/12/18 04:20:05;;;;;;;12.82;6.10;;;8.00;99.90;;;;;;5011652;28;20037;-92
2023/12/18 04:22:32;;;;;;;16.15;8.07;;;8.00;99.90;;;;;;5014225;28;20041;-92
2023/12/18 04:24:58;;;;;;;24.77;10.13;;;7.90;99.90;;;;;;5015123;28;20451;-92
2023/12/18 04:27:23;;;;;;;19.15;8.45;;;7.90;99.90;;;;;;5015419;28;20515;-92
2023/12/18 04:29:49;;;;;;;18.02;8.52;;;7.90;99.90;;;;;;5015437;28;20041;-91
2023/12/18 04:32:15;;;;;;;15.35;6.88;;;7.90;99.90;;;;;;5014803;28;20038;-92
2023/12/18 04:34:41;;;;;;;17.05;9.85;;;7.80;99.90;;;;;;4998668;28;20573;-91
2023/12/18 04:37:07;;;;;;;17.25;7.85;;;7.80;99.90;;;;;;4998403;28;20439;-92
2023/12/18 04:39:33;;;;;;;14.82;7.00;;;7.80;99.90;;;;;;5015091;28;20038;-92
2023/12/18 04:41:58;;;;;;;23.08;9.15;;;7.80;99.90;;;;;;4998507;28;20040;-92
2023/12/18 04:44:24;;;;;;;13.40;6.32;;;7.80;99.90;;;;;;4998054;28;20068;-91
2023/12/18 04:46:51;;;;;;;13.30;5.65;;;7.80;99.90;;;;;;5015183;28;20033;-92
2023/12/18 04:49:17;;;;;;;16.33;7.68;;;7.80;99.90;;;;;;5015013;28;20045;-92
2023/12/18 04:51:42;;;;;;;21.80;7.82;;;7.80;99.90;;;;;;4997794;28;20041;-91
2023/12/18 04:54:09;;;;;;;13.50;7.03;;;7.70;99.90;;;;;;5014383;28;20040;-92
2023/12/18 04:56:34;;;;;;;13.00;5.97;;;7.70;99.90;;;;;;5014852;28;20041;-92
2023/12/18 04:59:00;;;;;;;17.70;9.93;;;7.80;99.90;;;;;;4998458;28;20037;-92
2023/12/18 05:01:26;;;;;;;21.33;8.90;;;7.70;99.90;;;;;;5014759;28;20128;-92
2023/12/18 05:03:51;;;;;;;15.73;7.60;;;7.80;99.90;;;;;;5014344;28;20067;-92
2023/12/18 05:06:21;;;;;;;17.88;9.82;;;7.80;99.90;;;;;;4997221;28;20519;-92
2023/12/18 05:08:48;;;;;;;20.45;9.45;;;7.70;99.90;;;;;;4997653;28;20076;-92
2023/12/18 05:11:17;;;;;;;17.00;8.23;;;7.70;99.90;;;;;;4996899;28;20042;-92
2023/12/18 05:13:42;;;;;;;23.73;10.27;;;7.70;99.90;;;;;;4996065;28;20041;-92
2023/12/18 05:16:08;;;;;;;17.80;7.07;;;7.70;99.90;;;;;;4997060;28;20048;-92
2023/12/18 05:18:33;;;;;;;22.15;8.65;;;7.70;99.90;;;;;;5013426;28;20077;-92
2023/12/18 05:20:59;;;;;;;16.20;7.85;;;7.70;99.90;;;;;;4996964;28;20411;-92
2023/12/18 05:23:25;;;;;;;21.25;8.95;;;7.70;99.90;;;;;;5012795;28;20063;-91
2023/12/18 05:25:51;;;;;;;22.83;9.73;;;7.70;99.90;;;;;;5013681;28;20033;-92
2023/12/18 05:28:16;;;;;;;13.57;6.47;;;7.70;99.90;;;;;;5014224;28;20045;-92
2023/12/18 05:30:42;;;;;;;15.57;6.50;;;7.70;99.90;;;;;;5014188;28;20041;-91
2023/12/18 05:33:08;;;;;;;18.92;8.00;;;7.70;99.90;;;;;;4988234;28;20041;-91
2023/12/18 05:35:33;;;;;;;46.38;9.00;;;7.70;99.90;;;;;;4997395;28;20033;-92
2023/12/18 05:37:59;;;;;;;17.92;7.80;;;7.70;99.90;;;;;;5013457;28;20591;-91
2023/12/18 05:40:24;;;;;;;16.73;7.45;;;7.70;99.90;;;;;;5013947;28;20029;-91
2023/12/18 05:42:50;;;;;;;17.60;9.50;;;7.70;99.90;;;;;;4997024;28;20090;-92
2023/12/18 05:45:16;;;;;;;17.35;6.90;;;7.70;99.90;;;;;;5013663;28;20084;-92
2023/12/18 05:47:41;;;;;;;16.25;8.43;;;7.70;99.90;;;;;;4997652;28;20049;-92
2023/12/18 05:50:07;;;;;;;16.48;7.70;;;7.70;99.90;;;;;;5013529;28;20033;-92
2023/12/18 05:52:33;;;;;;;16.48;7.35;;;7.70;99.90;;;;;;5013281;28;20529;-92
2023/12/18 05:54:59;;;;;;;17.48;8.48;;;7.70;99.90;;;;;;4997493;28;20052;-92
2023/12/18 05:57:24;;;;;;;12.57;6.13;;;7.70;99.90;;;;;;4997345;28;20504;-92
2023/12/18 05:59:50;;;;;;;11.85;6.90;;;7.70;99.90;;;;;;5013868;28;20037;-91
2023/12/18 06:02:15;;;;;;;16.33;7.63;;;7.70;99.90;;;;;;4996737;28;20400;-91
2023/12/18 06:04:44;;;;;;;19.55;8.93;;;7.70;99.90;;;;;;4996763;28;20079;-91
2023/12/18 06:07:10;;;;;;;14.52;6.97;;;7.70;99.90;;;;;;4996231;28;20046;-91
2023/12/18 06:09:36;;;;;;;15.15;7.75;;;7.70;99.90;;;;;;5013134;28;20040;-91
2023/12/18 06:12:02;;;;;;;11.40;5.53;;;7.70;99.90;;;;;;4996648;28;20030;-91
2023/12/18 06:14:28;;;;;;;16.27;7.40;;;7.70;99.90;;;;;;4996347;28;20088;-91
2023/12/18 06:16:53;;;;;;;17.65;6.45;;;7.70;99.90;;;;;;4996450;28;20369;-91
2023/12/18 06:19:19;;;;;;;16.20;8.68;;;7.70;99.90;;;;;;5013238;28;20037;-91
2023/12/18 06:21:45;;;;;;;11.93;5.55;;;7.70;99.90;;;;;;5013532;28;20038;-91
2023/12/18 06:24:10;;;;;;;15.63;5.88;;;7.70;99.90;;;;;;4996513;28;20407;-91
2023/12/18 06:26:36;;;;;;;7.40;3.88;;;7.70;99.90;;;;;;5013264;28;20096;-91
2023/12/18 06:29:01;;;;;;;16.13;6.80;;;7.80;99.90;;;;;;5013037;28;20045;-90
2023/12/18 06:31:27;;;;;;;14.93;5.72;;;7.80;99.90;;;;;;5012551;28;20095;-91
2023/12/18 06:33:52;;;;;;;14.15;7.38;;;7.80;99.90;;;;;;4996327;28;20044;-92
2023/12/18 06:36:19;;;;;;;16.13;8.57;;;7.80;99.90;;;;;;4996337;28;20492;-91
2023/12/18 06:38:45;;;;;;;37.20;5.00;;;7.80;99.90;;;;;;5012757;28;20041;-91
2023/12/18 06:41:11;;;;;;;15.23;6.38;;;7.80;99.90;;;;;;4996602;28;20033;-91
2023/12/18 06:43:37;;;;;;;11.15;4.93;;;7.80;99.90;;;;;;5011852;28;20499;-90
2023/12/18 06:46:02;;;;;;;16.27;7.60;;;7.80;99.90;;;;;;5012245;28;20709;-90
2023/12/18 06:48:29;;;;;;;17.83;7.28;;;7.80;99.90;;;;;;4995573;28;20041;-90
2023/12/18 06:50:54;;;;;;;12.65;6.03;;;7.80;99.90;;;;;;5011889;28;20049;-90
2023/12/18 06:53:20;;;;;;;16.17;7.28;;;7.80;99.90;;;;;;4995521;28;20107;-91
2023/12/18 06:55:45;;;;;;;19.02;7.25;;;7.80;99.90;;;;;;4994386;28;20052;-91
2023/12/18 06:58:11;;;;;;;17.13;7.15;;;7.80;99.90;;;;;;4995932;28;20041;-91
2023/12/18 07:00:37;;;;;;;16.08;6.28;;;7.80;99.90;;;;;;4996280;28;20033;-91
2023/12/18 07:03:03;;;;;;;16.88;5.70;;;7.80;99.90;;;;;;4996040;28;20103;-91
2023/12/18 07:05:29;;;;;;;13.65;6.70;;;7.80;99.90;;;;;;4996350;28;20396;-91
2023/12/18 07:07:57;;;;;;;17.38;6.20;;;7.80;99.90;;;;;;4996023;28;20037;-91
2023/12/18 07:10:23;;;;;;;15.98;7.63;;;7.90;99.90;;;;;;5012741;28;20124;-90
2023/12/18 07:12:49;;;;;;;10.57;5.82;;;7.80;99.90;;;;;;5011710;28;20068;-91
2023/12/18 07:15:14;;;;;;;16.13;8.52;;;7.80;99.90;;;;;;5012328;28;20562;-91
2023/12/18 07:17:40;;;;;;;14.05;7.50;;;7.80;99.90;;;;;;5010813;28;20034;-91
2023/12/18 07:20:08;;;;;;;18.77;7.40;;;7.80;99.90;;;;;;5011933;28;20041;-91
2023/12/18 07:22:34;;;;;;;14.13;6.90;;;7.80;99.90;;;;;;4995354;28;20080;-91
2023/12/18 07:25:00;;;;;;;12.07;4.80;;;7.80;99.90;;;;;;5010779;28;20486;-91
2023/12/18 07:27:26;;;;;;;14.80;7.43;;;7.80;99.90;;;;;;4996017;28;20037;-91
2023/12/18 07:29:51;;;;;;;11.32;5.20;;;7.80;99.90;;;;;;4996284;28;20096;-91
2023/12/18 07:32:17;;;;;;;13.82;8.13;;;7.80;99.90;;;;;;4995342;28;20075;-91
2023/12/18 07:34:43;;;;;;;7.55;4.05;;;7.90;99.90;;;;;;5012022;28;20042;-91
2023/12/18 07:37:09;;;;;;;19.33;8.02;;;7.90;99.90;;;;;;5011784;28;20043;-91
2023/12/18 07:39:34;;;;;;;15.02;7.97;;;7.90;99.90;;;;;;5012486;28;20036;-91
2023/12/18 07:42:01;;;;;;;15.02;7.53;;;7.90;99.90;;;;;;5012376;28;20524;-91
2023/12/18 07:44:27;;;;;;;19.92;8.18;;;7.90;99.90;;;;;;4996356;28;20121;-91
2023/12/18 07:46:52;;;;;;;17.70;8.23;;;7.90;99.90;;;;;;5017169;28;20079;-91
2023/12/18 07:49:18;;;;;;;15.38;7.47;;;7.90;99.90;;;;;;5027160;28;20051;-91
2023/12/18 07:51:44;;;;;;;16.52;7.53;;;7.90;99.90;;;;;;5010780;28;20038;-91
2023/12/18 07:54:09;;;;;;;21.67;8.98;;;7.90;99.90;;;;;;5023033;28;20057;-91
2023/12/18 07:56:35;;;;;;;13.43;7.22;;;7.90;99.90;;;;;;5030100;28;20037;-91
2023/12/18 07:59:01;;;;;;;23.98;8.73;;;7.90;99.90;;;;;;5016815;28;20037;-91
2023/12/18 08:01:26;;;;;;;13.90;6.05;;;7.90;99.90;;;;;;5014853;28;20052;-91
2023/12/18 08:03:52;;;;;;;20.67;10.10;;;7.90;99.90;;;;;;5000017;28;20043;-92
2023/12/18 08:06:17;;;;;;;20.83;10.60;;;7.90;99.90;;;;;;5016536;28;20037;-91
2023/12/18 08:08:43;;;;;;;14.73;6.82;;;7.90;99.90;;;;;;4999161;28;20068;-92
2023/12/18 08:11:12;;;;;;;13.93;5.88;;;8.00;99.90;;;;;;4999093;28;20088;-92
2023/12/18 08:13:41;;;;;;;15.77;7.70;;;8.00;99.90;;;;;;5014676;28;20071;-92
2023/12/18 08:16:07;;;;;;;15.95;7.45;;;8.00;99.90;;;;;;5015437;28;20391;-92
2023/12/18 08:18:33;;;;;;;22.58;8.90;;;8.00;99.90;;;;;;4999022;28;20030;-91
2023/12/18 08:20:59;;;;;;;18.60;10.07;;;8.00;99.90;;;;;;5015227;28;20042;-92
2023/12/18 08:23:24;;;;;;;24.38;8.45;;;8.00;99.90;;;;;;5015097;28;20124;-92
2023/12/18 08:25:50;;;;;;;19.52;8.48;;;8.00;99.90;;;;;;5015205;28;20132;-92
2023/12/18 08:28:15;;;;;;;16.02;7.63;;;8.00;99.90;;;;;;4998521;28;20065;-92
2023/12/18 08:30:43;;;;;;;21.55;10.05;;;8.00;99.90;;;;;;4999147;28;20091;-92
2023/12/18 08:33:08;;;;;;;18.60;9.07;;;8.00;99.90;;;;;;4990075;28;20051;-91
2023/12/18 08:35:34;;;;;;;16.73;9.38;;;8.10;99.90;;;;;;4998307;28;20126;-91
2023/12/18 08:37:59;;;;;;;23.25;11.10;;;8.10;99.90;;;;;;5014533;28;20041;-91
2023/12/18 08:40:25;;;;;;;21.20;9.25;;;8.10;99.90;;;;;;5015178;28;20088;-90
2023/12/18 08:42:51;;;;;;;23.42;9.02;;;8.10;99.90;;;;;;4998331;28;20454;-91
2023/12/18 08:45:17;;;;;;;20.60;10.98;;;8.10;99.90;;;;;;4998055;28;20029;-90
2023/12/18 08:47:43;;;;;;;21.58;9.55;;;8.10;99.90;;;;;;4998461;28;20087;-90
2023/12/18 08:50:09;;;;;;;19.65;10.30;;;8.10;99.90;;;;;;4998486;28;20539;-89
2023/12/18 08:52:35;;;;;;;26.45;12.38;;;8.10;99.90;;;;;;5013962;28;20045;-90
2023/12/18 08:55:01;;;;;;;21.80;11.18;;;8.10;99.90;;;;;;5014244;28;20439;-90
2023/12/18 08:57:28;;;;;;;18.95;7.38;;;8.10;99.90;;;;;;4997645;28;20044;-90
2023/12/18 08:59:55;;;;;;;15.10;8.45;;;8.20;99.90;;;;;;5014272;28;20440;-90
2023/12/18 09:02:21;;;;;;;18.17;8.52;;;8.10;99.90;;;;;;4997625;28;20049;-90
2023/12/18 09:04:47;;;;;;;22.60;11.27;;;8.10;99.90;;;;;;4997699;28;20045;-89
2023/12/18 09:07:12;;;;;;;25.27;10.57;;;8.10;99.90;;;;;;4997299;28;20111;-90
2023/12/18 09:09:39;;;;;;;20.02;10.45;;;8.20;99.90;;;;;;5010979;28;20065;-90
2023/12/18 09:12:06;;;;;;;16.48;8.88;;;8.20;99.90;;;;;;4997102;28;20428;-90
2023/12/18 09:14:32;;;;;;;17.20;8.82;;;8.20;99.90;;;;;;4996797;28;20116;-90
2023/12/18 09:16:57;;;;;;;20.80;10.43;;;8.20;99.90;;;;;;4995711;28;20473;-90
2023/12/18 09:19:23;;;;;;;20.73;11.13;;;8.20;99.90;;;;;;5013970;28;20037;-90
2023/12/18 09:21:49;;;;;;;16.17;7.82;;;8.20;99.90;;;;;;5014190;28;20034;-90
2023/12/18 09:24:14;;;;;;;18.95;7.85;;;8.20;99.90;;;;;;4996697;28;20480;-90
2023/12/18 09:26:40;;;;;;;19.27;9.82;;;8.20;99.90;;;;;;5012519;28;20042;-90
2023/12/18 09:29:05;;;;;;;13.20;6.05;;;8.20;99.90;;;;;;5013276;28;20446;-90
2023/12/18 09:31:31;;;;;;;18.02;9.35;;;8.20;99.90;;;;;;4994009;28;20068;-89
2023/12/18 09:33:57;;;;;;;26.63;9.27;;;8.20;99.90;;;;;;5011208;28;20033;-90
2023/12/18 09:36:22;;;;;;;21.17;10.40;;;8.30;99.90;;;;;;4996675;28;20091;-90
2023/12/18 09:38:48;;;;;;;20.17;10.93;;;8.30;99.90;;;;;;4996708;28;20044;-90
2023/12/18 09:41:24;;;;;;;26.80;12.25;;;8.30;99.90;;;;;;4996712;28;20451;-90
2023/12/18 09:43:54;;;;;;;18.73;9.90;;;8.30;99.90;;;;;;4996831;28;20496;-90
2023/12/18 09:46:22;;;;;;;16.92;8.77;;;8.30;99.90;;;;;;5013613;28;20034;-89
2023/12/18 09:48:54;;;;;;;21.20;12.10;;;8.30;99.90;;;;;;5013049;28;20045;-90
2023/12/18 09:51:24;;;;;;;19.42;8.85;;;8.30;99.90;;;;;;4997340;28;20037;-90
2023/12/18 09:53:54;;;;;;;20.08;10.43;;;8.30;99.90;;;;;;4995946;28;20053;-89
2023/12/18 09:56:21;;;;;;;23.38;12.02;;;8.30;99.90;;;;;;4996967;28;20615;-90
2023/12/18 09:58:47;;;;;;;19.23;10.00;;;8.30;99.90;;;;;;4997129;28;20045;-89
2023/12/18 10:01:14;;;;;;;21.75;11.23;;;8.30;99.90;;;;;;4997553;28;20567;-90
2023/12/18 10:03:39;;;;;;;27.83;12.55;;;8.30;99.90;;;;;;4996551;28;20033;-91
2023/12/18 10:06:05;;;;;;;24.67;10.98;;;8.30;99.90;;;;;;5012972;28;20030;-91
2023/12/18 10:08:31;;;;;;;16.38;7.55;;;8.40;99.90;;;;;;4996893;28;20385;-90
2023/12/18 10:10:57;;;;;;;13.30;5.90;;;8.40;99.90;;;;;;5013414;28;20493;-90
2023/12/18 10:13:25;;;;;;;19.42;10.00;;;8.40;99.90;;;;;;4996275;28;20040;-90
2023/12/18 10:15:55;;;;;;;26.05;12.35;;;8.40;99.90;;;;;;4994658;28;20129;-90
2023/12/18 10:18:24;;;;;;;18.70;10.13;;;8.40;99.90;;;;;;5011278;28;20045;-90
2023/12/18 10:20:51;;;;;;;30.88;13.52;;;8.40;99.90;;;;;;4996270;28;20048;-90
2023/12/18 10:23:17;;;;;;;25.63;12.50;;;8.40;99.90;;;;;;4995768;28;20037;-90
2023/12/18 10:25:43;;;;;;;25.08;12.80;;;8.40;99.90;;;;;;4996813;28;20037;-90
2023/12/18 10:28:09;;;;;;;25.70;11.50;;;8.40;99.90;;;;;;4996858;28;20044;-90
2023/12/18 10:30:35;;;;;;;16.75;9.25;;;8.40;99.90;;;;;;4997155;28;20120;-90
2023/12/18 10:33:05;;;;;;;19.50;11.10;;;8.40;99.90;;;;;;4995710;28;20748;-89
2023/12/18 10:35:32;;;;;;;26.95;13.43;;;8.40;99.90;;;;;;5009938;28;20413;-90
2023/12/18 10:38:00;;;;;;;19.65;9.25;;;8.40;99.90;;;;;;5011769;28;20073;-90
2023/12/18 10:40:27;;;;;;;29.02;10.18;;;8.40;99.90;;;;;;5012539;28;20045;-90
2023/12/18 10:43:23;;;;;;;20.38;10.23;;;8.40;99.90;;;;;;4996153;28;20484;-90
2023/12/18 10:45:50;;;;;;;16.42;9.68;;;8.40;99.90;;;;;;5012853;28;20421;-90
2023/12/18 10:48:20;;;;;;;14.23;8.00;;;8.40;99.90;;;;;;5013573;28;20038;-91
2023/12/18 10:50:49;;;;;;;24.60;11.45;;;8.40;99.90;;;;;;4997041;28;20084;-91
2023/12/18 10:53:18;;;;;;;23.70;11.48;;;8.40;99.90;;;;;;4995482;28;20170;-91
2023/12/18 10:55:45;;;;;;;21.77;9.75;;;8.40;99.90;;;;;;4996395;28;20050;-90
2023/12/18 10:58:12;;;;;;;18.08;9.27;;;8.40;99.90;;;;;;4996209;28;20496;-90
2023/12/18 11:00:39;;;;;;;16.13;8.90;;;8.40;99.90;;;;;;5012568;28;20096;-89
2023/12/18 11:03:05;;;;;;;22.27;11.68;;;8.40;99.90;;;;;;4995098;28;20040;-90
2023/12/18 11:05:37;;;;;;;20.13;11.25;;;8.40;99.90;;;;;;4995984;28;20041;-90
2023/12/18 11:08:03;;;;;;;22.48;9.77;;;8.40;99.90;;;;;;4996377;28;20087;-92
2023/12/18 11:10:28;;;;;;;18.63;8.57;;;8.40;99.90;;;;;;5012244;28;20049;-91
2023/12/18 11:13:23;;;;;;;25.13;10.05;;;8.50;99.90;;;;;;4994269;28;20041;-92
2023/12/18 11:15:59;;;;;;;29.58;11.20;;;8.50;99.90;;;;;;4995363;28;20573;-90
2023/12/18 11:18:46;;;;;;;19.50;10.93;;;8.50;99.90;;;;;;4995297;28;20068;-91
2023/12/18 11:21:12;;;;;;;16.23;9.13;;;8.50;99.90;;;;;;5011819;28;20506;-92
2023/12/18 11:23:39;;;;;;;23.13;8.30;;;8.50;99.90;;;;;;5011072;28;20121;-91
2023/12/18 11:26:12;;;;;;;21.88;9.35;;;8.50;99.90;;;;;;5011936;28;20254;-91
2023/12/18 11:28:38;;;;;;;;;;;8.50;99.90;;;;;;4995956;28;20045;-92
2023/12/18 11:31:05;;;;;;;22.27;11.70;;;8.60;99.90;;;;;;4998649;28;19996;-92
2023/12/18 11:33:31;;;;;;;19.35;10.18;;;8.60;99.90;;;;;;5015634;28;20049;-91
2023/12/18 11:35:57;;;;;;;18.35;8.65;;;8.60;99.90;;;;;;5014762;28;20083;-90
2023/12/18 11:38:24;;;;;;;24.73;12.18;;;8.60;99.90;;;;;;5015298;28;20038;-91
2023/12/18 11:40:55;;;;;;;18.65;7.15;;;8.60;99.90;;;;;;5016326;28;20053;-91
2023/12/18 11:43:35;;;;;;;19.17;8.25;;;8.70;99.90;;;;;;4999491;28;20052;-90
2023/12/18 11:46:01;;;;;;;15.48;7.95;;;8.70;99.90;;;;;;4999571;28;20041;-91
2023/12/18 11:48:27;;;;;;;17.60;8.55;;;8.70;99.90;;;;;;4999265;28;20124;-91
2023/12/18 11:50:53;;;;;;;17.08;8.15;;;8.70;99.90;;;;;;4999382;28;20132;-90
2023/12/18 11:53:24;;;;;;;22.05;9.75;;;8.70;99.90;;;;;;4999022;28;20051;-91
2023/12/18 11:55:51;;;;;;;15.98;8.20;;;8.80;99.90;;;;;;5015504;28;20042;-90
2023/12/18 11:58:24;;;;;;;26.40;11.52;;;8.80;99.90;;;;;;5014785;28;20077;-90
2023/12/18 12:00:50;;;;;;;14.95;8.27;;;8.80;99.90;;;;;;4999788;28;20132;-90
2023/12/18 12:03:16;;;;;;;23.38;10.70;;;8.80;99.90;;;;;;5015678;28;20129;-90
2023/12/18 12:05:43;;;;;;;16.20;7.03;;;8.90;99.90;;;;;;4999382;28;20038;-92
2023/12/18 12:08:09;;;;;;;23.70;10.02;;;8.90;99.90;;;;;;5007350;28;20052;-91
2023/12/18 12:10:51;;;;;;;16.70;7.68;;;8.90;99.90;;;;;;4999470;28;20080;-90
2023/12/18 12:13:18;;;;;;;13.30;6.63;;;8.90;99.90;;;;;;4991732;28;20037;-91
2023/12/18 12:15:58;;;;;;;15.38;7.75;;;8.90;99.90;;;;;;4998600;28;20045;-91
2023/12/18 12:18:31;;;;;;;14.07;8.10;;;8.90;99.90;;;;;;4997833;28;20518;-90
2023/12/18 12:20:57;;;;;;;18.42;8.35;;;8.90;99.90;;;;;;4999454;28;20505;-90
2023/12/18 12:23:24;;;;;;;20.00;7.05;;;8.90;99.90;;;;;;4998429;28;20045;-90
2023/12/18 12:26:00;;;;;;;17.27;8.75;;;8.90;99.90;;;;;;5015136;28;20041;-90
2023/12/18 12:28:29;;;;;;;16.65;6.20;;;8.90;99.90;;;;;;4998945;28;20042;-91
2023/12/18 12:30:55;;;;;;;18.25;7.43;;;8.90;99.90;;;;;;4998867;28;20092;-90
2023/12/18 12:33:20;;;;;;;17.23;8.95;;;8.90;99.90;;;;;;4997871;28;20045;-90
2023/12/18 12:35:46;;;;;;;13.55;7.43;;;8.90;99.90;;;;;;4999085;28;20408;-90
2023/12/18 12:38:11;;;;;;;15.32;5.88;;;8.90;99.90;;;;;;4998553;28;20049;-90
2023/12/18 12:40:45;;;;;;;15.20;7.88;;;8.90;99.90;;;;;;5015295;28;20046;-91
2023/12/18 12:43:13;;;;;;;31.35;9.07;;;8.90;99.90;;;;;;5022578;28;20496;-90